createdAt,value
2023-05-19T00:00:40.725Z,9.02
2023-05-19T00:05:56.082Z,9.01
2023-05-19T00:10:59.841Z,9.00
2023-05-19T00:16:03.471Z,9.00
2023-05-19T00:21:06.665Z,9.00
2023-05-19T00:26:10.895Z,8.98
2023-05-19T00:31:14.220Z,8.96
2023-05-19T00:36:17.530Z,8.95
2023-05-19T00:41:21.446Z,8.93
2023-05-19T00:46:25.302Z,8.94
2023-05-19T00:51:30.112Z,8.93
2023-05-19T00:56:33.843Z,8.95
2023-05-19T01:01:37.690Z,8.95
2023-05-19T01:06:42.639Z,8.97
2023-05-19T01:11:46.119Z,8.99
2023-05-19T01:17:21.071Z,9.00
2023-05-19T01:22:55.307Z,9.01
2023-05-19T01:28:55.653Z,9.02
2023-05-19T01:34:00.553Z,9.04
2023-05-19T01:39:04.325Z,9.05
2023-05-19T01:44:08.665Z,9.07
2023-05-19T01:49:12.339Z,9.09
2023-05-19T01:54:15.795Z,9.11
2023-05-19T01:59:35.085Z,9.13
2023-05-19T02:05:11.499Z,9.14
2023-05-19T02:10:33.432Z,9.17
2023-05-19T02:15:42.665Z,9.20
2023-05-19T02:20:45.974Z,9.23
2023-05-19T02:25:49.277Z,9.23
2023-05-19T02:30:52.491Z,9.24
2023-05-19T02:35:56.558Z,9.22
2023-05-19T02:40:59.736Z,9.18
2023-05-19T02:46:02.954Z,9.14
2023-05-19T02:51:06.136Z,9.07
2023-05-19T02:56:09.567Z,9.02
2023-05-19T03:01:12.876Z,8.99
2023-05-19T03:06:18.271Z,8.99
2023-05-19T03:11:21.430Z,9.01
2023-05-19T03:16:24.980Z,9.03
2023-05-19T03:21:28.257Z,9.05
2023-05-19T03:26:31.371Z,9.09
2023-05-19T03:31:34.571Z,9.16
2023-05-19T03:36:40.441Z,9.23
2023-05-19T03:41:43.752Z,9.33
2023-05-19T03:46:46.966Z,9.44
2023-05-19T03:51:50.179Z,9.56
2023-05-19T03:56:53.888Z,9.68
2023-05-19T04:01:58.146Z,9.77
2023-05-19T04:07:01.533Z,9.85
2023-05-19T04:12:06.004Z,9.91
2023-05-19T04:17:09.528Z,9.96
2023-05-19T04:22:12.801Z,10.02
2023-05-19T04:27:16.413Z,10.11
2023-05-19T04:32:19.526Z,10.18
2023-05-19T04:37:23.035Z,10.23
2023-05-19T04:42:26.560Z,10.29
2023-05-19T04:47:30.525Z,10.37
2023-05-19T04:52:34.443Z,10.48
2023-05-19T04:57:38.015Z,10.60
2023-05-19T05:02:43.283Z,10.75
2023-05-19T05:07:47.098Z,10.88
2023-05-19T05:12:50.921Z,11.00
2023-05-19T05:17:54.554Z,11.15
2023-05-19T05:22:58.350Z,11.28
2023-05-19T05:28:05.449Z,11.41
2023-05-19T05:33:09.675Z,11.51
2023-05-19T05:38:13.403Z,11.65
2023-05-19T05:43:16.845Z,11.85
2023-05-19T05:48:20.536Z,12.01
2023-05-19T05:53:26.102Z,12.23
2023-05-19T05:58:29.804Z,12.48
2023-05-19T06:03:33.714Z,12.66
2023-05-19T06:08:37.159Z,12.85
2023-05-19T06:13:43.598Z,12.96
2023-05-19T06:18:47.079Z,12.96
2023-05-19T06:23:50.283Z,13.04
2023-05-19T06:28:53.380Z,13.22
2023-05-19T06:33:56.583Z,13.37
2023-05-19T06:39:01.309Z,13.53
2023-05-19T06:44:10.847Z,13.72
2023-05-19T06:49:14.295Z,14.02
2023-05-19T06:54:17.577Z,14.32
2023-05-19T06:59:22.673Z,14.60
2023-05-19T07:04:26.108Z,14.81
2023-05-19T07:09:29.277Z,15.06
2023-05-19T07:14:32.586Z,15.23
2023-05-19T07:19:35.794Z,15.51
2023-05-19T07:24:38.999Z,15.81
2023-05-19T07:29:42.313Z,16.06
2023-05-19T07:34:46.038Z,16.13
2023-05-19T07:39:49.280Z,16.29
2023-05-19T07:44:52.452Z,16.18
2023-05-19T07:49:55.757Z,16.01
2023-05-19T07:54:59.991Z,15.90
2023-05-19T08:00:07.971Z,15.90
2023-05-19T08:05:11.936Z,16.19
2023-05-19T08:10:15.650Z,16.45
2023-05-19T08:15:19.372Z,16.65
2023-05-19T08:20:23.302Z,16.66
2023-05-19T08:25:26.611Z,16.71
2023-05-19T08:30:29.839Z,16.83
2023-05-19T08:35:33.479Z,16.85
2023-05-19T08:40:38.392Z,16.71
2023-05-19T08:45:46.816Z,16.58
2023-05-19T08:51:01.186Z,16.59
2023-05-19T08:56:37.571Z,16.64
2023-05-19T09:01:46.045Z,16.65
2023-05-19T09:06:50.645Z,16.62
2023-05-19T09:11:53.958Z,16.80
2023-05-19T09:16:57.418Z,17.12
2023-05-19T09:22:03.676Z,17.21
2023-05-19T09:27:07.266Z,17.28
2023-05-19T09:32:10.658Z,17.36
2023-05-19T09:37:14.090Z,17.37
2023-05-19T09:42:17.453Z,17.24
2023-05-19T09:47:20.971Z,17.06
2023-05-19T09:52:24.851Z,16.92
2023-05-19T09:57:28.866Z,17.02
2023-05-19T10:02:33.243Z,17.18
2023-05-19T10:07:37.872Z,17.23
2023-05-19T10:12:42.586Z,17.28
2023-05-19T10:17:46.949Z,17.37
2023-05-19T10:22:50.641Z,17.37
2023-05-19T10:27:58.877Z,17.21
2023-05-19T10:33:07.902Z,16.98
2023-05-19T10:38:35.698Z,16.68
2023-05-19T10:44:00.412Z,16.47
2023-05-19T10:49:03.619Z,16.43
2023-05-19T10:54:14.394Z,16.31
2023-05-19T10:59:35.847Z,15.96
2023-05-19T11:04:51.766Z,15.70
2023-05-19T11:09:55.364Z,15.54
2023-05-19T11:14:59.707Z,15.38
2023-05-19T11:20:24.631Z,15.20
2023-05-19T11:25:45.333Z,15.13
2023-05-19T11:30:50.882Z,15.21
2023-05-19T11:35:59.726Z,15.31
2023-05-19T11:41:04.130Z,15.48
2023-05-19T11:46:10.108Z,15.70
2023-05-19T11:51:13.764Z,15.82
2023-05-19T11:56:16.970Z,15.90
2023-05-19T12:01:27.448Z,15.84
2023-05-19T12:06:31.378Z,15.75
2023-05-19T12:11:35.609Z,15.60
2023-05-19T12:27:22.517Z,15.08
2023-05-19T12:32:26.200Z,14.77
2023-05-19T12:37:29.736Z,14.53
2023-05-19T12:42:31.933Z,14.39
2023-05-19T12:47:35.392Z,14.43
2023-05-19T12:52:43.455Z,14.53
2023-05-19T12:57:51.633Z,14.62
2023-05-19T13:03:04.789Z,14.54
2023-05-19T13:08:07.919Z,14.39
2023-05-19T13:13:09.915Z,14.15
2023-05-19T13:18:13.435Z,13.94
2023-05-19T13:23:15.611Z,13.88
2023-05-19T13:28:18.320Z,14.09
2023-05-19T13:33:20.412Z,14.30
2023-05-19T13:38:22.276Z,14.33
2023-05-19T13:43:24.765Z,14.23
2023-05-19T13:48:27.055Z,14.07
2023-05-19T13:53:30.772Z,13.90
2023-05-19T13:58:32.749Z,13.67
2023-05-19T14:03:34.979Z,13.50
2023-05-19T14:08:37.016Z,13.35
2023-05-19T14:13:41.925Z,13.25
2023-05-19T14:18:45.399Z,13.23
2023-05-19T14:23:47.703Z,13.37
2023-05-19T14:28:50.151Z,13.60
2023-05-19T14:33:52.244Z,13.88
2023-05-19T14:38:54.106Z,14.12
2023-05-19T14:43:56.285Z,14.31
2023-05-19T14:48:58.162Z,14.46
2023-05-19T14:54:01.713Z,14.62
2023-05-19T14:59:04.074Z,14.64
2023-05-19T15:04:06.102Z,14.61
2023-05-19T15:09:08.086Z,14.49
2023-05-19T15:14:10.212Z,14.35
2023-05-19T15:19:12.491Z,14.23
2023-05-19T15:24:15.503Z,14.09
2023-05-19T15:29:17.791Z,14.09
2023-05-19T15:34:20.704Z,14.19
2023-05-19T15:39:22.874Z,14.36
2023-05-19T15:44:27.632Z,14.52
2023-05-19T15:49:30.933Z,14.51
2023-05-19T15:54:33.424Z,14.41
2023-05-19T15:59:37.679Z,14.32
2023-05-19T16:04:42.375Z,14.22
2023-05-19T16:09:46.911Z,14.11
2023-05-19T16:14:49.737Z,14.02
2023-05-19T16:19:51.674Z,13.95
2023-05-19T16:24:53.715Z,13.87
2023-05-19T16:29:55.591Z,13.81
2023-05-19T16:34:57.448Z,13.75
2023-05-19T16:40:00.054Z,13.71
2023-05-19T16:45:02.224Z,13.67
2023-05-19T16:50:06.980Z,13.62
2023-05-19T16:55:09.488Z,13.55
2023-05-19T17:00:12.987Z,13.50
2023-05-19T17:05:15.587Z,13.45
2023-05-19T17:10:18.057Z,13.39
2023-05-19T17:15:19.937Z,13.33
2023-05-19T17:20:21.822Z,13.27
2023-05-19T17:25:23.793Z,13.23
2023-05-19T17:30:26.077Z,13.19
2023-05-19T17:35:28.612Z,13.14
2023-05-19T17:40:31.378Z,13.09
2023-05-19T17:45:34.069Z,13.04
2023-05-19T17:50:36.252Z,12.99
2023-05-19T17:55:38.943Z,12.94
2023-05-19T18:00:41.268Z,12.89
2023-05-19T18:05:44.389Z,12.86
2023-05-19T18:10:48.922Z,12.83
2023-05-19T18:15:52.323Z,12.79
2023-05-19T18:20:54.677Z,12.76
2023-05-19T18:25:56.602Z,12.72
2023-05-19T18:31:04.265Z,12.68
2023-05-19T18:36:07.265Z,12.64
2023-05-19T18:41:09.347Z,12.60
2023-05-19T18:46:12.942Z,12.57
2023-05-19T18:51:15.559Z,12.53
2023-05-19T18:56:27.891Z,12.50
2023-05-19T19:01:30.012Z,12.47
2023-05-19T19:06:32.119Z,12.44
2023-05-19T19:11:35.570Z,12.40
2023-05-19T19:16:38.151Z,12.37
2023-05-19T19:21:40.344Z,12.36
2023-05-19T19:26:42.727Z,12.33
2023-05-19T19:31:44.986Z,12.31
2023-05-19T19:36:49.252Z,12.29
2023-05-19T19:41:51.949Z,12.26
2023-05-19T19:46:54.294Z,12.25
2023-05-19T19:51:56.955Z,12.23
2023-05-19T19:56:59.727Z,12.21
2023-05-19T20:02:02.764Z,12.19
2023-05-19T20:07:04.862Z,12.18
2023-05-19T20:12:08.237Z,12.17
2023-05-19T20:17:10.918Z,12.16
2023-05-19T20:22:13.720Z,12.15
2023-05-19T20:27:16.112Z,12.13
2023-05-19T20:32:18.625Z,12.12
2023-05-19T20:37:22.014Z,12.11
2023-05-19T20:42:24.035Z,12.10
2023-05-19T20:47:26.937Z,12.09
2023-05-19T20:52:31.901Z,12.07
2023-05-19T20:57:34.444Z,12.06
2023-05-19T21:02:36.768Z,12.04
2023-05-19T21:07:39.022Z,12.02
2023-05-19T21:12:42.319Z,12.00
2023-05-19T21:17:44.849Z,12.00
2023-05-19T21:22:48.024Z,11.99
2023-05-19T21:27:51.753Z,11.98
2023-05-19T21:32:54.646Z,11.97
2023-05-19T21:37:56.729Z,11.96
2023-05-19T21:42:58.702Z,11.96
2023-05-19T21:48:00.784Z,11.95
2023-05-19T21:53:03.075Z,11.94
2023-05-19T21:58:05.255Z,11.93
2023-05-19T22:03:07.587Z,11.92
2023-05-19T22:08:10.544Z,11.91
2023-05-19T22:13:12.421Z,11.91
2023-05-19T22:18:14.907Z,11.91
2023-05-19T22:23:16.787Z,11.90
2023-05-19T22:28:18.663Z,11.90
2023-05-19T22:33:20.819Z,11.90
2023-05-19T22:38:22.635Z,11.89
2023-05-19T22:43:24.704Z,11.89
2023-05-19T22:48:26.577Z,11.88
2023-05-19T22:53:28.451Z,11.88
2023-05-19T22:58:30.237Z,11.88
2023-05-19T23:03:34.154Z,11.87
2023-05-19T23:08:36.130Z,11.87
2023-05-19T23:13:38.005Z,11.88
2023-05-19T23:18:40.112Z,11.87
2023-05-19T23:23:42.067Z,11.87
2023-05-19T23:28:44.249Z,11.87
2023-05-19T23:33:46.133Z,11.87
2023-05-19T23:38:47.986Z,11.87
2023-05-19T23:43:49.987Z,11.86
2023-05-19T23:48:51.873Z,11.86
2023-05-19T23:53:53.745Z,11.85
2023-05-19T23:58:55.727Z,11.84
